Time;durP1;ratioP1;P1;durP2;ratioP2;P2;SDS_P1;SDS_P2;PMS_P1;PMS_P2;Temp;Humidity;BMP_temperature;BMP_pressure;BME280_temperature;BME280_humidity;BME280_pressure;Samples;Min_cycle;Max_cycle;Signal;HPM_P1;HPM_P2
2022/10/04 00:01:09;;;;;;;8.23;2.67;;;;;;;27.79;38.49;100942.66;5085100;28;20057;-76
2022/10/04 00:03:44;;;;;;;10.55;3.20;;;;;;;27.69;38.40;100935.94;5084401;28;20056;-77
2022/10/04 00:06:21;;;;;;;9.02;2.60;;;;;;;27.70;41.06;100935.03;5081578;28;20048;-78
2022/10/04 00:08:54;;;;;;;7.18;3.10;;;;;;;27.59;39.92;100934.59;5076172;28;21215;-77
2022/10/04 00:11:28;;;;;;;6.90;3.13;;;;;;;27.46;38.98;100933.31;5079483;28;20063;-75
2022/10/04 00:14:00;;;;;;;12.70;2.90;;;;;;;27.41;39.02;100937.94;5082662;28;20048;-76
2022/10/04 00:16:32;;;;;;;11.93;3.40;;;;;;;27.34;39.17;100929.34;5077415;28;20048;-79
2022/10/04 00:19:25;;;;;;;11.18;3.00;;;;;;;27.32;39.49;100926.72;5084457;28;20055;-76
2022/10/04 00:22:20;;;;;;;8.43;3.65;;;;;;;27.30;40.81;100933.03;5080428;28;20453;-75
2022/10/04 00:25:18;;;;;;;17.10;2.83;;;;;;;27.18;41.71;100929.00;5083473;28;20541;-77
2022/10/04 00:28:31;;;;;;;9.35;3.00;;;;;;;27.11;40.72;100925.72;5085231;28;20397;-75
2022/10/04 00:31:14;;;;;;;9.48;3.53;;;;;;;27.07;39.66;100921.41;5002558;28;20061;-77
2022/10/04 00:33:44;;;;;;;10.43;2.97;;;;;;;27.05;40.11;100927.72;5000768;28;20140;-77
2022/10/04 00:36:42;;;;;;;11.00;3.00;;;;;;;27.02;41.67;100931.34;5052629;28;20047;-75
2022/10/04 00:39:40;;;;;;;15.50;4.00;;;;;;;26.91;42.11;100926.41;5085695;28;20564;-76
2022/10/04 00:42:42;;;;;;;12.52;4.43;;;;;;;26.81;41.22;100929.47;5077901;28;20084;-75
2022/10/04 00:45:21;;;;;;;8.70;3.03;;;;;;;26.73;42.71;100924.41;5082376;28;20040;-78
2022/10/04 00:48:30;;;;;;;5.97;2.40;;;;;;;26.64;43.60;100927.38;5082139;28;20044;-79
2022/10/04 00:51:05;;;;;;;13.93;3.30;;;;;;;26.54;43.73;100926.81;5040115;28;20493;-77
2022/10/04 00:53:53;;;;;;;12.10;2.95;;;;;;;26.42;42.99;100922.78;5082608;27;20602;-76
2022/10/04 00:56:30;;;;;;;7.03;2.97;;;;;;;26.36;42.56;100928.28;5084258;28;20464;-76
2022/10/04 00:59:34;;;;;;;9.88;2.72;;;;;;;26.32;43.94;100921.38;5082663;28;20043;-75
2022/10/04 01:02:06;;;;;;;12.52;4.07;;;;;;;26.19;44.27;100914.75;5083574;28;20048;-75
2022/10/04 01:04:46;;;;;;;13.80;3.40;;;;;;;26.12;44.37;100920.25;5086571;28;20548;-75
2022/10/04 01:07:21;;;;;;;6.97;2.80;;;;;;;26.05;44.79;100920.50;5078867;28;20418;-75
2022/10/04 01:09:54;;;;;;;8.90;2.72;;;;;;;25.96;44.73;100919.00;5075418;28;20048;-76
2022/10/04 01:12:40;;;;;;;5.75;2.85;;;;;;;25.90;44.95;100919.19;5082814;28;20048;-75
2022/10/04 01:15:13;;;;;;;9.98;3.13;;;;;;;25.83;45.44;100936.19;5086867;28;20798;-74
2022/10/04 01:17:42;;;;;;;6.10;3.13;;;;;;;25.75;46.28;100936.41;5089749;28;20059;-76
2022/10/04 01:20:35;;;;;;;10.77;3.38;;;;;;;25.65;45.96;100935.81;5073343;28;20110;-75
2022/10/04 01:23:05;;;;;;;8.60;3.60;;;;;;;25.60;45.73;100942.19;5085223;28;20040;-76
2022/10/04 01:25:48;;;;;;;6.50;2.80;;;;;;;25.51;46.49;100943.31;5085147;28;20115;-73
2022/10/04 01:28:17;;;;;;;10.57;3.30;;;;;;;25.44;46.70;100939.97;5086849;28;20048;-75
2022/10/04 01:30:46;;;;;;;10.65;3.17;;;;;;;25.34;46.42;100938.53;5087436;28;20048;-74
2022/10/04 01:33:15;;;;;;;6.57;3.10;;;;;;;25.27;46.98;100939.63;5085321;28;20044;-75
2022/10/04 01:35:43;;;;;;;7.25;3.13;;;;;;;25.13;47.31;100934.69;5081696;28;20748;-75
2022/10/04 01:38:14;;;;;;;5.65;2.97;;;;;;;25.04;47.04;100942.88;5079169;28;20131;-76
2022/10/04 01:40:47;;;;;;;17.05;3.08;;;;;;;24.95;47.27;100935.19;5082105;28;20054;-73
2022/10/04 01:43:23;;;;;;;12.68;3.25;;;;;;;24.83;47.52;100937.25;5081829;28;20522;-75
2022/10/04 01:45:57;;;;;;;6.97;3.13;;;;;;;24.73;47.65;100933.09;5086831;28;20070;-74
2022/10/04 01:48:30;;;;;;;14.10;3.00;;;;;;;24.63;47.29;100935.13;5081944;28;20051;-74
2022/10/04 01:51:03;;;;;;;6.88;2.88;;;;;;;24.55;47.79;100928.28;5080287;28;20051;-73
2022/10/04 01:53:36;;;;;;;10.07;3.10;;;;;;;24.43;47.94;100938.22;5086788;28;20083;-74
2022/10/04 01:56:09;;;;;;;11.77;3.40;;;;;;;24.33;48.48;100939.38;5078678;28;20522;-74
2022/10/04 01:58:44;;;;;;;10.90;3.55;;;;;;;24.24;48.89;100942.25;5085337;28;20163;-73
2022/10/04 02:01:17;;;;;;;8.20;3.25;;;;;;;24.14;48.79;100936.28;5082715;28;20055;-74
2022/10/04 02:03:53;;;;;;;5.72;3.30;;;;;;;24.04;49.66;100943.59;5078879;28;20493;-74
2022/10/04 02:06:24;;;;;;;12.50;3.30;;;;;;;23.95;50.49;100943.78;5085524;28;20048;-72
2022/10/04 02:08:57;;;;;;;14.77;3.45;;;;;;;23.87;50.65;100953.69;5077134;28;20040;-73
2022/10/04 02:11:30;;;;;;;8.57;3.30;;;;;;;23.78;50.18;100936.25;5083514;28;20044;-73
2022/10/04 02:13:59;;;;;;;7.05;3.25;;;;;;;23.69;50.67;100944.34;5084143;28;20044;-73
2022/10/04 02:16:28;;;;;;;12.95;4.85;;;;;;;23.62;50.98;100940.13;5082842;28;20074;-73
2022/10/04 02:18:58;;;;;;;13.75;3.53;;;;;;;23.55;51.94;100951.72;5092260;28;20048;-74
2022/10/04 02:21:26;;;;;;;12.38;3.63;;;;;;;23.47;52.57;100951.84;5094178;28;20063;-74
2022/10/04 02:23:57;;;;;;;10.23;3.33;;;;;;;23.37;52.31;100948.53;5085977;28;20064;-74
2022/10/04 02:26:26;;;;;;;10.15;3.25;;;;;;;23.31;52.11;100961.84;5086775;28;20131;-74
2022/10/04 02:28:54;;;;;;;11.05;2.95;;;;;;;23.22;53.11;100967.31;5087085;28;20044;-75
2022/10/04 02:34:11;;;;;;;9.98;3.50;;;;;;;23.00;54.63;100965.09;5087808;28;20186;-73
2022/10/04 02:36:41;;;;;;;12.32;3.38;;;;;;;22.92;55.47;100969.59;5088915;28;20052;-74
2022/10/04 02:39:16;;;;;;;8.35;3.25;;;;;;;22.82;56.07;100972.47;5087824;28;20071;-74
2022/10/04 02:41:49;;;;;;;17.77;3.72;;;;;;;22.67;56.29;100977.09;5087657;28;20106;-74
2022/10/04 02:44:22;;;;;;;9.50;3.20;;;;;;;22.57;56.95;100978.16;5088404;28;20093;-74
2022/10/04 02:46:56;;;;;;;6.18;3.58;;;;;;;22.50;58.71;100992.34;5084808;28;20052;-72
2022/10/04 02:49:30;;;;;;;9.27;3.50;;;;;;;22.40;58.92;100990.72;5090081;28;20091;-74
2022/10/04 02:52:03;;;;;;;8.25;3.50;;;;;;;22.33;59.14;100996.13;5087615;28;20036;-74
2022/10/04 02:54:39;;;;;;;11.25;3.30;;;;;;;22.24;59.90;100996.25;5086718;28;20076;-74
2022/10/04 02:57:16;;;;;;;8.25;3.33;;;;;;;22.15;60.47;100997.22;5088787;28;20071;-73
2022/10/04 02:59:44;;;;;;;8.73;3.50;;;;;;;22.07;61.19;101001.72;5090418;28;20139;-74
2022/10/04 03:02:23;;;;;;;11.20;3.60;;;;;;;21.91;62.14;100997.56;5086986;28;20056;-73
2022/10/04 03:04:54;;;;;;;8.82;3.67;;;;;;;21.77;61.77;100995.09;5084124;28;20054;-73
2022/10/04 03:07:24;;;;;;;7.10;2.92;;;;;;;21.69;62.16;101002.22;5085833;28;20048;-72
2022/10/04 03:09:54;;;;;;;12.63;4.00;;;;;;;21.58;62.46;101004.09;5087442;28;20060;-74
2022/10/04 03:12:23;;;;;;;11.25;3.50;;;;;;;21.47;62.41;101006.88;5087489;28;20564;-72
2022/10/04 03:14:54;;;;;;;6.68;3.08;;;;;;;21.39;62.69;101004.28;5086800;28;20645;-73
2022/10/04 03:17:23;;;;;;;8.95;3.42;;;;;;;21.33;62.96;101005.25;5089284;28;20044;-74
2022/10/04 03:19:52;;;;;;;12.65;4.15;;;;;;;21.24;64.04;101012.38;5091330;28;20044;-75
2022/10/04 03:22:23;;;;;;;7.93;3.40;;;;;;;21.15;63.15;101015.09;5087909;28;20048;-75
2022/10/04 03:24:56;;;;;;;12.07;4.47;;;;;;;21.09;63.25;101018.66;5087671;28;20087;-74
2022/10/04 03:27:28;;;;;;;14.95;3.58;;;;;;;21.03;62.96;101024.84;5087485;28;20056;-75
2022/10/04 03:29:58;;;;;;;8.10;3.67;;;;;;;20.98;63.10;101031.91;5087709;28;20055;-75
2022/10/04 03:32:30;;;;;;;7.47;3.40;;;;;;;20.88;62.86;101022.34;5087042;28;20108;-74
2022/10/04 03:34:59;;;;;;;;;;;;;;;20.87;63.55;101032.00;5086069;28;20067;-75
2022/10/04 03:37:31;;;;;;;14.85;4.28;;;;;;;20.82;63.39;101035.53;5087822;28;19973;-74
2022/10/04 03:40:03;;;;;;;9.18;3.80;;;;;;;20.74;64.43;101037.38;5088724;28;20048;-75
2022/10/04 03:42:35;;;;;;;10.93;3.63;;;;;;;20.65;64.59;101036.56;5091587;28;20051;-73
2022/10/04 03:45:07;;;;;;;11.70;3.17;;;;;;;20.62;64.99;101041.84;5087549;28;20040;-73
2022/10/04 03:47:39;;;;;;;8.95;3.38;;;;;;;20.61;65.15;101045.34;5083635;28;20718;-75
2022/10/04 03:50:17;;;;;;;8.00;2.65;;;;;;;20.61;64.81;101047.97;5084893;28;20048;-76
2022/10/04 03:52:50;;;;;;;7.38;3.22;;;;;;;20.57;65.13;101045.38;5087214;28;20059;-76
2022/10/04 03:55:24;;;;;;;13.18;3.90;;;;;;;20.55;67.00;101049.72;5085377;28;20052;-76
2022/10/04 03:57:53;;;;;;;7.03;3.17;;;;;;;20.50;66.40;101049.75;5089049;28;20040;-79
2022/10/04 04:00:22;;;;;;;10.40;3.33;;;;;;;20.45;66.44;101056.81;5084849;28;20044;-76
2022/10/04 04:02:53;;;;;;;11.90;3.78;;;;;;;20.42;66.47;101051.59;5084558;28;20056;-76
2022/10/04 04:05:30;;;;;;;9.60;3.65;;;;;;;20.36;67.02;101054.25;5081426;28;20059;-75
2022/10/04 04:08:07;;;;;;;14.20;3.08;;;;;;;20.26;67.17;101056.94;5087006;28;20055;-76
2022/10/04 04:10:40;;;;;;;9.45;3.28;;;;;;;20.06;68.14;101057.03;5077195;28;20067;-75
2022/10/04 04:13:16;;;;;;;;;;;;;;;19.91;68.08;101056.25;5081993;28;20565;-74
2022/10/04 04:15:45;;;;;;;7.15;3.17;;;;;;;19.81;68.42;101066.78;5080552;28;19928;-75
2022/10/04 04:18:17;;;;;;;8.25;3.47;;;;;;;19.78;68.12;101060.66;5088151;28;20114;-74
2022/10/04 04:20:48;;;;;;;12.60;3.92;;;;;;;19.74;68.47;101066.81;5080795;28;20471;-75
2022/10/04 04:23:26;;;;;;;13.05;3.50;;;;;;;19.66;68.11;101072.06;5080776;28;20102;-75
2022/10/04 04:25:59;;;;;;;7.45;2.55;;;;;;;19.58;67.31;101073.81;5083741;28;20373;-76
2022/10/04 04:28:32;;;;;;;8.43;2.65;;;;;;;19.54;67.38;101072.06;5082686;28;20386;-73
2022/10/04 04:31:05;;;;;;;6.78;2.92;;;;;;;19.42;68.42;101072.97;5082965;28;20162;-73
2022/10/04 04:33:43;;;;;;;8.80;2.60;;;;;;;19.33;68.35;101083.47;5082952;28;20985;-73
2022/10/04 04:36:13;;;;;;;5.38;2.58;;;;;;;19.27;68.14;101087.00;5080748;28;20044;-74
2022/10/04 04:41:27;;;;;;;2.80;2.20;;;;;;;19.15;67.59;101102.72;5082862;28;20058;-73
2022/10/04 04:43:56;;;;;;;3.28;2.03;;;;;;;19.05;67.29;101104.47;5083515;28;20853;-75
2022/10/04 04:46:25;;;;;;;4.40;1.60;;;;;;;18.98;67.39;101110.59;5086382;28;20044;-73
2022/10/04 04:49:01;;;;;;;3.47;1.80;;;;;;;18.90;67.50;101110.59;5079783;28;20063;-75
2022/10/04 04:51:32;;;;;;;4.13;1.70;;;;;;;18.86;67.41;101114.09;5087324;28;20048;-75
2022/10/04 04:54:04;;;;;;;2.03;1.50;;;;;;;18.76;67.86;101114.91;5089215;27;20084;-75
2022/10/04 04:56:35;;;;;;;6.13;1.88;;;;;;;18.61;69.04;101108.78;5083081;28;20075;-74
2022/10/04 04:59:08;;;;;;;2.15;1.52;;;;;;;18.54;69.67;101116.63;5079932;28;20502;-74
2022/10/04 05:01:42;;;;;;;2.75;1.60;;;;;;;18.48;69.51;101114.84;5081006;28;20642;-74
2022/10/04 05:04:20;;;;;;;1.60;1.27;;;;;;;18.42;69.18;101110.47;5072200;28;20045;-73
2022/10/04 05:07:00;;;;;;;3.88;1.52;;;;;;;18.35;69.07;101105.22;5081954;28;20128;-73
2022/10/04 05:09:31;;;;;;;1.95;1.50;;;;;;;18.31;69.62;101106.09;5077929;28;20563;-75
2022/10/04 05:12:08;;;;;;;4.05;1.50;;;;;;;18.29;69.75;101102.59;5084543;28;20059;-74
2022/10/04 05:14:40;;;;;;;1.38;1.10;;;;;;;18.24;69.87;101102.56;5080062;28;20051;-72
2022/10/04 05:17:08;;;;;;;;;;;;;;;18.23;69.65;101111.28;5081062;28;20152;-71
2022/10/04 05:19:40;;;;;;;2.15;1.48;;;;;;;18.18;69.61;101108.63;5082514;28;19986;-71
2022/10/04 05:22:12;;;;;;;2.38;1.60;;;;;;;18.14;69.65;101104.28;5084259;28;20704;-71
2022/10/04 05:24:43;;;;;;;3.03;1.30;;;;;;;18.11;69.52;101111.25;5080672;28;20094;-71
2022/10/04 05:27:18;;;;;;;2.72;1.42;;;;;;;18.07;70.13;101109.47;5082857;28;20043;-71
2022/10/04 05:29:58;;;;;;;3.95;1.10;;;;;;;18.03;70.52;101107.69;5079994;28;20053;-73
2022/10/04 05:32:35;;;;;;;2.78;1.63;;;;;;;17.95;70.89;101105.94;5086032;28;20089;-72
2022/10/04 05:35:14;;;;;;;3.75;1.80;;;;;;;17.89;73.36;101105.00;5081766;28;20041;-72
2022/10/04 05:37:52;;;;;;;2.35;1.45;;;;;;;17.79;72.67;101106.69;5087781;28;20047;-72
2022/10/04 05:40:32;;;;;;;4.97;1.73;;;;;;;17.76;72.94;101110.16;5085250;28;20928;-73
2022/10/04 05:43:03;;;;;;;2.10;1.40;;;;;;;17.68;73.19;101108.38;5078958;28;20051;-72
2022/10/04 05:45:32;;;;;;;5.10;1.80;;;;;;;17.58;74.11;101107.44;5086147;28;20056;-71
2022/10/04 05:48:07;;;;;;;4.20;1.80;;;;;;;17.51;75.00;101106.53;5085863;28;20578;-72
2022/10/04 05:50:39;;;;;;;2.33;1.40;;;;;;;17.49;75.00;101110.88;5087262;28;20085;-72
2022/10/04 05:53:23;;;;;;;;;;;;;;;17.46;74.64;101110.84;5086775;28;20044;-72
2022/10/04 05:56:00;;;;;;;2.20;1.73;;;;;;;17.40;74.59;101116.03;5060984;28;19921;-72
2022/10/04 05:58:50;;;;;;;1.95;1.40;;;;;;;17.36;74.19;101117.78;5061368;28;20044;-72
2022/10/04 06:01:31;;;;;;;2.08;1.42;;;;;;;17.34;73.25;101115.97;5062206;28;20568;-72
2022/10/04 06:04:35;;;;;;;4.90;1.88;;;;;;;17.28;73.36;101126.41;5059297;28;20056;-72
2022/10/04 06:07:14;;;;;;;2.45;1.48;;;;;;;17.25;73.97;101126.38;5017143;28;20674;-72
2022/10/04 06:10:04;;;;;;;2.25;1.25;;;;;;;17.19;73.43;101131.56;5062670;28;20505;-72
2022/10/04 06:12:45;;;;;;;1.60;1.20;;;;;;;17.13;73.02;101132.38;5063836;28;20044;-71
2022/10/04 06:15:42;;;;;;;2.25;1.30;;;;;;;17.05;73.12;101134.06;5060969;28;20623;-71
2022/10/04 06:18:39;;;;;;;1.73;1.20;;;;;;;16.98;74.08;101137.50;5059558;28;20537;-71
2022/10/04 06:21:26;;;;;;;3.10;1.45;;;;;;;16.92;73.55;101127.84;5049438;28;20689;-71
2022/10/04 06:24:02;;;;;;;1.77;1.33;;;;;;;16.89;73.66;101127.81;5060182;28;20052;-71
2022/10/04 06:26:39;;;;;;;2.95;1.10;;;;;;;16.86;73.69;101125.16;5057843;28;20045;-71
2022/10/04 06:29:14;;;;;;;1.65;1.25;;;;;;;16.83;74.46;101125.13;5061364;28;20623;-71
2022/10/04 06:32:23;;;;;;;2.17;1.33;;;;;;;16.78;74.94;101118.97;5067145;28;20052;-71
2022/10/04 06:35:26;;;;;;;3.00;1.88;;;;;;;16.72;74.44;101123.28;5060386;28;20037;-73
2022/10/04 06:38:19;;;;;;;7.53;1.27;;;;;;;16.67;75.37;101124.06;5057628;28;20041;-73
2022/10/04 06:40:57;;;;;;;;;;;;;;;16.61;75.11;101121.41;5062585;28;20052;-72
2022/10/04 06:43:38;;;;;;;1.70;1.30;;;;;;;16.53;75.17;101113.47;5061174;28;19920;-72
2022/10/04 06:46:15;;;;;;;2.95;1.20;;;;;;;16.51;76.14;101129.13;5062272;28;20079;-73
2022/10/04 06:49:12;;;;;;;1.40;1.30;;;;;;;16.40;76.93;101133.38;5068129;28;20051;-73
2022/10/04 06:52:10;;;;;;;4.65;1.58;;;;;;;16.26;77.14;101134.94;5060315;28;20060;-73
2022/10/04 06:54:57;;;;;;;2.50;1.30;;;;;;;16.19;78.47;101130.50;5086923;27;20047;-73
2022/10/04 06:57:58;;;;;;;1.90;1.35;;;;;;;16.04;78.15;101116.41;5090403;28;20040;-72
2022/10/04 07:00:28;;;;;;;2.65;1.50;;;;;;;16.04;78.38;101132.06;5081862;28;20048;-72
2022/10/04 07:03:05;;;;;;;2.08;1.48;;;;;;;16.01;78.82;101134.63;5088068;28;20048;-72
2022/10/04 07:05:43;;;;;;;2.25;1.30;;;;;;;15.99;79.22;101130.22;5085986;28;20506;-73
2022/10/04 07:08:29;;;;;;;2.22;1.40;;;;;;;15.99;78.68;101135.44;5084212;28;20480;-72
2022/10/04 07:11:01;;;;;;;3.35;1.33;;;;;;;15.99;78.39;101135.44;5086273;28;20120;-73
2022/10/04 07:13:42;;;;;;;1.25;1.05;;;;;;;15.97;78.92;101143.28;5085545;28;20051;-72
2022/10/04 07:16:26;;;;;;;1.58;1.15;;;;;;;15.95;78.60;101146.72;5082986;28;20045;-73
2022/10/04 07:19:04;;;;;;;3.13;1.20;;;;;;;15.94;78.61;101144.97;5082202;28;20081;-73
2022/10/04 07:21:43;;;;;;;2.30;1.52;;;;;;;15.84;78.58;101142.22;5084336;28;20060;-73
2022/10/04 07:24:20;;;;;;;4.32;1.48;;;;;;;15.89;77.98;101144.88;5080974;28;20135;-72
2022/10/04 07:26:51;;;;;;;2.53;1.50;;;;;;;15.83;77.82;101147.44;5082511;28;20056;-72
2022/10/04 07:29:23;;;;;;;2.88;1.40;;;;;;;15.81;79.03;101152.63;5086634;28;20494;-73
2022/10/04 07:32:08;;;;;;;3.20;1.23;;;;;;;15.77;79.09;101144.72;5084594;28;20044;-73
2022/10/04 07:34:50;;;;;;;2.88;1.13;;;;;;;15.75;79.12;101149.03;5087667;28;20044;-73
2022/10/04 07:37:30;;;;;;;1.80;1.05;;;;;;;15.70;79.52;101138.50;5086020;28;20539;-73
2022/10/04 07:40:05;;;;;;;1.92;1.23;;;;;;;15.66;79.42;101141.91;5082748;28;20058;-73
2022/10/04 07:42:41;;;;;;;3.42;1.20;;;;;;;15.60;79.51;101127.06;5084076;28;20051;-73
2022/10/04 07:45:18;;;;;;;1.70;1.05;;;;;;;15.58;80.04;101138.34;5081570;28;20044;-73
2022/10/04 07:47:47;;;;;;;1.80;1.23;;;;;;;15.53;80.24;101133.06;5092596;28;20044;-73
2022/10/04 07:50:25;;;;;;;2.00;1.00;;;;;;;15.48;79.95;101129.47;5093442;28;20055;-72
2022/10/04 07:53:02;;;;;;;2.63;1.23;;;;;;;15.45;80.51;101137.25;5081827;28;20044;-72
2022/10/04 07:55:41;;;;;;;1.83;1.30;;;;;;;15.41;80.49;101130.22;5091118;27;20059;-72
2022/10/04 07:58:30;;;;;;;3.03;1.38;;;;;;;15.36;80.65;101122.34;5083363;28;20048;-72
2022/10/04 08:01:02;;;;;;;1.52;1.15;;;;;;;15.32;80.68;101127.47;5083904;28;20577;-73
2022/10/04 08:03:50;;;;;;;2.92;1.40;;;;;;;15.26;80.93;101131.75;5082061;28;20060;-73
2022/10/04 08:06:26;;;;;;;2.53;1.38;;;;;;;15.23;81.90;101131.72;5086687;28;20048;-74
2022/10/04 08:09:24;;;;;;;2.38;1.30;;;;;;;15.16;81.74;101132.44;5083934;28;20048;-73
2022/10/04 08:12:03;;;;;;;2.45;1.15;;;;;;;15.15;81.61;101133.31;5080928;28;20047;-73
2022/10/04 08:14:51;;;;;;;2.97;1.58;;;;;;;15.13;81.54;101135.00;5077750;28;20472;-73
2022/10/04 08:17:37;;;;;;;2.28;1.35;;;;;;;15.10;81.66;101136.69;5089189;28;20052;-73
2022/10/04 08:20:24;;;;;;;1.98;1.00;;;;;;;15.07;81.76;101140.09;5082973;28;20056;-74
2022/10/04 08:23:07;;;;;;;5.03;1.58;;;;;;;15.03;82.58;101140.94;5082899;28;20121;-73
2022/10/04 08:25:45;;;;;;;2.33;1.15;;;;;;;14.98;82.05;101142.53;5082178;28;20430;-72
2022/10/04 08:31:23;;;;;;;3.75;1.30;;;;;;;14.93;81.75;101139.00;5084492;28;20074;-73
2022/10/04 08:34:07;;;;;;;1.52;1.05;;;;;;;14.91;81.51;101140.69;5082618;28;20059;-73
2022/10/04 08:37:02;;;;;;;1.88;1.55;;;;;;;14.88;81.88;101145.00;5083748;28;20385;-73
2022/10/04 08:39:51;;;;;;;5.18;1.40;;;;;;;14.86;82.28;101146.69;5083643;28;20055;-72
2022/10/04 08:43:04;;;;;;;2.00;1.20;;;;;;;14.82;82.35;101146.59;5083252;28;20047;-73
2022/10/04 08:46:04;;;;;;;1.67;1.30;;;;;;;14.77;82.51;101145.66;5030350;28;20044;-73
2022/10/04 08:49:10;;;;;;;2.40;1.15;;;;;;;14.74;82.13;101143.88;5082023;28;20547;-72
2022/10/04 08:52:14;;;;;;;2.33;1.10;;;;;;;14.68;81.87;101146.34;5080979;28;20044;-73
2022/10/04 08:55:21;;;;;;;3.55;1.30;;;;;;;14.65;82.48;101151.50;5085215;27;20059;-73
2022/10/04 08:58:14;;;;;;;3.10;1.50;;;;;;;14.63;83.33;101158.41;5080884;28;20048;-73
2022/10/04 09:00:59;;;;;;;1.67;1.27;;;;;;;14.60;84.35;101155.75;5080435;28;20055;-73
2022/10/04 09:04:00;;;;;;;2.40;1.27;;;;;;;14.55;83.94;101150.47;5081423;28;20512;-73
2022/10/04 09:06:41;;;;;;;2.03;1.52;;;;;;;14.52;84.26;101155.56;5076239;28;20067;-73
2022/10/04 09:09:50;;;;;;;2.72;1.25;;;;;;;14.47;84.51;101157.19;5079016;28;20423;-73
2022/10/04 09:12:53;;;;;;;2.55;1.48;;;;;;;14.37;84.18;101155.28;5083672;28;20133;-73
2022/10/04 09:15:31;;;;;;;2.40;1.42;;;;;;;14.41;83.75;101157.97;5081587;28;20040;-73
2022/10/04 09:18:15;;;;;;;1.63;1.00;;;;;;;14.37;84.53;101145.72;5084371;28;20666;-72
2022/10/04 09:20:57;;;;;;;1.85;1.30;;;;;;;14.36;85.00;101140.47;5080141;28;20056;-73
2022/10/04 09:23:56;;;;;;;;;;;;;;;14.33;84.67;101143.03;5076876;28;20052;-73
2022/10/04 09:26:31;;;;;;;2.30;1.20;;;;;;;14.22;85.92;101133.28;5086462;28;20316;-72
2022/10/04 09:29:36;;;;;;;2.63;1.38;;;;;;;14.25;85.98;101145.50;5078664;28;20114;-72
2022/10/04 09:32:31;;;;;;;2.00;1.23;;;;;;;14.25;85.42;101145.50;5087090;28;20647;-73
2022/10/04 09:35:39;;;;;;;2.95;1.42;;;;;;;14.23;85.81;101148.06;5083718;28;20134;-73
2022/10/04 09:38:52;;;;;;;2.10;1.33;;;;;;;14.20;85.26;101147.09;4971799;28;20062;-73
2022/10/04 09:41:46;;;;;;;1.35;1.13;;;;;;;14.17;85.63;101142.72;5081770;28;20101;-72
2022/10/04 09:45:04;;;;;;;4.00;1.52;;;;;;;14.16;85.13;101146.16;5074147;28;20429;-72
2022/10/04 09:47:44;;;;;;;2.75;1.23;;;;;;;14.13;85.61;101145.22;5053399;28;20489;-73
2022/10/04 09:50:50;;;;;;;2.20;1.50;;;;;;;14.11;85.50;101131.28;5093267;28;20040;-72
2022/10/04 09:53:43;;;;;;;2.15;1.08;;;;;;;14.09;85.12;101140.78;5079708;28;20044;-72
2022/10/04 09:56:46;;;;;;;1.02;0.85;;;;;;;14.01;86.19;101146.69;5081531;28;20052;-73
2022/10/04 09:59:56;;;;;;;3.13;1.27;;;;;;;13.83;87.02;101146.31;5078047;28;20052;-73
2022/10/04 10:02:48;;;;;;;2.63;1.35;;;;;;;13.78;86.72;101147.94;5081598;28;20048;-73
2022/10/04 10:05:44;;;;;;;4.00;1.13;;;;;;;13.77;86.27;101157.47;5082443;28;20493;-74
2022/10/04 10:08:21;;;;;;;4.13;1.52;;;;;;;13.78;86.32;101153.13;5075448;28;20040;-74
2022/10/04 10:14:18;;;;;;;2.92;1.20;;;;;;;13.69;86.49;101156.41;5078659;28;20712;-73
2022/10/04 10:17:00;;;;;;;2.80;1.40;;;;;;;13.62;87.28;101147.56;5083643;28;21249;-73
2022/10/04 10:19:55;;;;;;;2.53;1.23;;;;;;;13.59;87.10;101151.84;5080198;28;20048;-73
2022/10/04 10:22:45;;;;;;;2.03;1.52;;;;;;;13.50;87.96;101149.03;5078043;28;20718;-73
2022/10/04 10:25:32;;;;;;;2.17;1.30;;;;;;;13.47;87.77;101142.03;5081374;28;20489;-73
2022/10/04 10:28:25;;;;;;;2.92;1.50;;;;;;;13.45;87.09;101142.84;5083714;28;20543;-73
2022/10/04 10:31:14;;;;;;;1.58;1.02;;;;;;;13.44;87.50;101144.53;5077417;28;20123;-73
2022/10/04 10:34:14;;;;;;;3.30;1.23;;;;;;;13.40;87.38;101141.00;5077252;28;20132;-73
2022/10/04 10:37:10;;;;;;;1.95;1.50;;;;;;;13.39;87.20;101136.63;5078850;28;20554;-74
2022/10/04 10:40:19;;;;;;;2.88;1.40;;;;;;;13.42;87.29;101148.81;5085010;28;20108;-74
2022/10/04 10:43:20;;;;;;;1.52;1.10;;;;;;;13.46;86.99;101144.59;5067816;28;20512;-74
2022/10/04 10:46:05;;;;;;;2.25;1.20;;;;;;;13.47;86.03;101146.31;5082412;28;20508;-74
2022/10/04 10:48:50;;;;;;;3.38;1.45;;;;;;;13.45;86.40;101159.31;5086740;28;20060;-74
2022/10/04 10:51:30;;;;;;;1.80;1.35;;;;;;;13.43;85.95;101154.91;5087741;28;20142;-74
2022/10/04 10:54:30;;;;;;;2.17;1.23;;;;;;;13.40;86.03;101155.72;5086637;27;20049;-74
2022/10/04 10:57:13;;;;;;;1.45;1.10;;;;;;;13.39;86.12;101165.22;5082160;28;20897;-73
2022/10/04 11:00:02;;;;;;;;;;;;;;;13.36;86.25;101165.16;5085517;28;20055;-72
2022/10/04 11:02:56;;;;;;;2.28;1.25;;;;;;;13.32;86.10;101167.63;5084021;28;19959;-74
2022/10/04 11:05:50;;;;;;;1.67;1.20;;;;;;;13.25;85.97;101160.50;5079813;28;20666;-73
2022/10/04 11:08:51;;;;;;;1.98;1.08;;;;;;;13.21;86.63;101165.59;5082832;28;20048;-74
2022/10/04 11:11:47;;;;;;;2.05;1.20;;;;;;;13.20;86.79;101169.06;5084415;28;20044;-73
2022/10/04 11:14:39;;;;;;;1.75;1.10;;;;;;;13.20;86.54;101163.84;5082570;28;20044;-74
2022/10/04 11:17:28;;;;;;;1.55;1.00;;;;;;;13.18;86.13;101160.34;5084797;28;20132;-73
2022/10/04 11:20:38;;;;;;;4.20;1.20;;;;;;;13.17;86.29;101165.47;5081846;28;20496;-73
2022/10/04 11:23:28;;;;;;;1.83;1.33;;;;;;;13.13;85.30;101155.88;5083803;28;20490;-77
2022/10/04 11:26:20;;;;;;;4.13;1.20;;;;;;;13.12;85.61;101157.56;5083168;28;20048;-75
2022/10/04 11:28:56;;;;;;;2.10;1.05;;;;;;;13.10;85.39;101156.69;5082826;28;20051;-72
2022/10/04 11:31:45;;;;;;;1.52;1.08;;;;;;;13.10;85.47;101148.00;5082527;28;20041;-75
2022/10/04 11:34:41;;;;;;;2.17;1.17;;;;;;;13.09;86.09;101154.03;5083845;28;20044;-74
2022/10/04 11:37:18;;;;;;;3.75;1.20;;;;;;;13.05;85.13;101147.88;5091949;28;20428;-75
2022/10/04 11:40:15;;;;;;;2.40;1.23;;;;;;;13.04;85.48;101153.91;5082222;28;20055;-74
2022/10/04 11:43:08;;;;;;;2.22;1.23;;;;;;;13.00;85.97;101158.13;5081558;28;20102;-75
2022/10/04 11:46:04;;;;;;;2.25;1.08;;;;;;;12.96;86.00;101152.81;5085802;28;20460;-73
2022/10/04 11:48:48;;;;;;;1.40;0.98;;;;;;;12.92;86.57;101143.22;5084433;28;20059;-74
2022/10/04 11:51:57;;;;;;;5.97;1.23;;;;;;;12.90;86.60;101152.69;5075126;28;20083;-73
2022/10/04 11:54:55;;;;;;;2.22;1.10;;;;;;;12.87;86.14;101153.47;5061620;28;20687;-73
2022/10/04 11:57:36;;;;;;;2.72;1.50;;;;;;;12.84;86.84;101149.91;5080626;28;20492;-73
2022/10/04 12:00:14;;;;;;;3.97;1.33;;;;;;;12.84;87.12;101147.31;5080455;28;20213;-73
2022/10/04 12:03:09;;;;;;;2.28;1.45;;;;;;;12.81;87.24;101148.13;5079214;28;20047;-73
2022/10/04 12:06:04;;;;;;;2.30;1.13;;;;;;;12.78;86.78;101151.53;5083835;28;20081;-73
2022/10/04 12:08:45;;;;;;;2.13;1.00;;;;;;;12.76;87.07;101154.91;5081743;28;20086;-73
2022/10/04 12:15:13;;;;;;;2.33;1.20;;;;;;;12.70;87.90;101153.03;5088247;28;20090;-73
2022/10/04 12:18:20;;;;;;;2.40;1.45;;;;;;;12.68;87.64;101152.09;5086070;28;20044;-73
2022/10/04 12:21:33;;;;;;;1.80;1.23;;;;;;;12.67;88.07;101152.06;5082004;28;20140;-73
2022/10/04 12:24:40;;;;;;;2.00;1.30;;;;;;;12.64;88.41;101151.97;5083374;28;20063;-74
2022/10/04 12:27:32;;;;;;;2.05;1.30;;;;;;;12.60;87.83;101164.00;5079910;28;20036;-74
2022/10/04 12:30:23;;;;;;;1.77;1.30;;;;;;;12.59;87.81;101167.41;5083703;28;20388;-74
2022/10/04 12:33:04;;;;;;;4.03;1.50;;;;;;;12.58;88.33;101166.53;5082665;28;20040;-73
2022/10/04 12:35:48;;;;;;;1.52;1.13;;;;;;;12.55;88.37;101169.06;5082329;28;20444;-74
2022/10/04 12:38:54;;;;;;;2.38;1.42;;;;;;;12.55;88.48;101168.16;5081688;28;20455;-74
2022/10/04 12:41:42;;;;;;;1.77;1.10;;;;;;;12.52;87.96;101160.31;5053813;28;20409;-72
2022/10/04 12:44:28;;;;;;;2.83;1.13;;;;;;;12.48;88.06;101164.50;5084706;28;20084;-72
2022/10/04 12:47:24;;;;;;;1.83;1.02;;;;;;;12.40;88.09;101166.03;5078502;28;20040;-73
2022/10/04 12:50:01;;;;;;;1.95;1.25;;;;;;;12.33;88.46;101170.16;5086102;28;20048;-73